createdAt,value
2023-05-25T00:01:02.556Z,28.30
2023-05-25T00:04:07.814Z,29.67
2023-05-25T00:07:11.769Z,29.84
2023-05-25T00:10:16.306Z,29.26
2023-05-25T00:13:20.879Z,30.58
2023-05-25T00:16:25.591Z,31.05
2023-05-25T00:19:35.822Z,31.58
2023-05-25T00:22:48.253Z,32.50
2023-05-25T00:26:02.256Z,31.33
2023-05-25T00:29:11.259Z,32.14
2023-05-25T00:32:20.472Z,32.74
2023-05-25T00:35:28.644Z,32.91
2023-05-25T00:38:36.783Z,30.40
2023-05-25T00:41:55.773Z,28.98
2023-05-25T00:45:09.329Z,28.14
2023-05-25T00:48:24.408Z,26.90
2023-05-25T00:51:37.466Z,27.68
2023-05-25T00:54:46.695Z,27.38
2023-05-25T00:58:03.988Z,26.14
2023-05-25T01:01:20.275Z,26.88
2023-05-25T01:04:37.034Z,26.20
2023-05-25T01:07:47.909Z,25.58
2023-05-25T01:11:00.749Z,25.83
2023-05-25T01:14:05.829Z,25.58
2023-05-25T01:17:17.069Z,24.83
2023-05-25T01:20:24.490Z,25.97
2023-05-25T01:23:36.331Z,24.64
2023-05-25T01:27:07.348Z,25.53
2023-05-25T01:30:15.212Z,25.74
2023-05-25T01:33:25.502Z,24.93
2023-05-25T01:36:32.451Z,24.75
2023-05-25T01:39:39.329Z,24.28
2023-05-25T01:42:47.563Z,23.98
2023-05-25T01:45:57.737Z,24.07
2023-05-25T01:49:31.327Z,25.18
2023-05-25T01:52:52.094Z,25.61
2023-05-25T01:56:11.771Z,23.85
2023-05-25T01:59:30.107Z,24.40
2023-05-25T02:02:34.772Z,24.91
2023-05-25T02:05:39.906Z,25.68
2023-05-25T02:08:46.573Z,25.00
2023-05-25T02:11:53.861Z,25.69
2023-05-25T02:14:59.212Z,27.28
2023-05-25T02:18:03.950Z,27.09
2023-05-25T02:21:08.826Z,27.31
2023-05-25T02:24:12.968Z,27.19
2023-05-25T02:27:16.954Z,26.55
2023-05-25T02:30:24.250Z,26.88
2023-05-25T02:33:49.041Z,27.36
2023-05-25T02:36:54.108Z,27.21
2023-05-25T02:40:00.698Z,27.47
2023-05-25T02:43:23.903Z,27.62
2023-05-25T02:48:20.680Z,28.15
2023-05-25T03:05:10.139Z,27.92
2023-05-25T03:08:17.006Z,29.22
2023-05-25T03:11:41.811Z,28.92
2023-05-25T03:14:58.490Z,29.20
2023-05-25T03:18:10.560Z,29.22
2023-05-25T03:21:18.501Z,29.62
2023-05-25T03:24:23.352Z,30.62
2023-05-25T03:27:32.540Z,29.92
2023-05-25T03:30:45.491Z,30.16
2023-05-25T03:34:03.427Z,29.83
2023-05-25T03:37:19.839Z,29.53
2023-05-25T03:40:48.724Z,30.17
2023-05-25T03:47:53.821Z,31.18
2023-05-25T03:51:04.873Z,30.77
2023-05-25T03:54:08.824Z,30.83
2023-05-25T03:57:13.392Z,30.95
2023-05-25T04:00:17.653Z,30.20
2023-05-25T04:03:24.794Z,30.87
2023-05-25T04:06:30.829Z,30.70
2023-05-25T04:09:34.974Z,30.99
2023-05-25T04:12:39.399Z,31.02
2023-05-25T04:15:43.475Z,30.33
2023-05-25T04:18:58.333Z,30.32
2023-05-25T04:22:02.838Z,30.32
2023-05-25T04:25:09.280Z,30.73
2023-05-25T04:28:14.643Z,30.52
2023-05-25T04:31:31.175Z,30.35
2023-05-25T04:35:04.577Z,29.52
2023-05-25T04:38:26.627Z,29.25
2023-05-25T04:41:30.825Z,28.69
2023-05-25T04:44:40.940Z,28.40
2023-05-25T04:47:46.638Z,28.66
2023-05-25T04:50:52.075Z,28.09
2023-05-25T04:53:57.318Z,28.27
2023-05-25T04:57:02.549Z,28.25
2023-05-25T05:00:20.313Z,28.21
2023-05-25T05:03:34.428Z,27.97
2023-05-25T05:06:40.816Z,28.13
2023-05-25T05:09:48.822Z,27.98
2023-05-25T05:12:54.650Z,27.82
2023-05-25T05:15:58.670Z,28.83
2023-05-25T05:19:03.431Z,28.78
2023-05-25T05:22:10.577Z,28.69
2023-05-25T05:25:15.551Z,27.94
2023-05-25T05:28:19.980Z,28.27
2023-05-25T05:31:24.995Z,27.97
2023-05-25T05:34:29.161Z,27.91
2023-05-25T05:37:33.707Z,27.42
2023-05-25T05:40:38.219Z,28.07
2023-05-25T05:43:44.649Z,28.68
2023-05-25T05:46:49.929Z,28.65
2023-05-25T05:49:54.699Z,28.72
2023-05-25T05:53:01.301Z,28.83
2023-05-25T05:56:05.586Z,28.83
2023-05-25T05:59:12.910Z,29.00
2023-05-25T06:02:18.031Z,28.06
2023-05-25T06:05:24.421Z,27.97
2023-05-25T06:08:29.830Z,27.79
2023-05-25T06:11:40.817Z,28.40
2023-05-25T06:14:49.943Z,28.06
2023-05-25T06:17:54.389Z,27.89
2023-05-25T06:20:58.410Z,28.14
2023-05-25T06:24:02.771Z,27.85
2023-05-25T06:27:07.094Z,28.20
2023-05-25T06:30:11.455Z,28.71
2023-05-25T06:33:15.694Z,28.64
2023-05-25T06:36:20.697Z,28.73
2023-05-25T06:39:27.877Z,29.22
2023-05-25T06:42:32.084Z,29.68
2023-05-25T06:45:39.522Z,29.55
2023-05-25T06:48:43.593Z,29.72
2023-05-25T06:51:47.727Z,29.69
2023-05-25T06:54:51.907Z,30.28
2023-05-25T06:57:55.800Z,30.76
2023-05-25T07:01:01.910Z,31.33
2023-05-25T07:04:08.019Z,31.75
2023-05-25T07:07:23.975Z,32.02
2023-05-25T07:10:28.515Z,31.86
2023-05-25T07:13:32.614Z,32.33
2023-05-25T07:16:36.558Z,32.75
2023-05-25T07:19:40.541Z,33.00
2023-05-25T07:22:44.569Z,32.88
2023-05-25T07:25:48.563Z,33.36
2023-05-25T07:28:53.179Z,33.15
2023-05-25T07:31:57.736Z,33.26
2023-05-25T07:35:02.215Z,33.96
2023-05-25T07:38:07.652Z,33.69
2023-05-25T07:41:12.807Z,34.13
2023-05-25T07:44:16.848Z,34.77
2023-05-25T07:47:20.849Z,35.12
2023-05-25T07:50:24.950Z,35.14
2023-05-25T07:53:28.996Z,35.16
2023-05-25T07:56:33.402Z,34.98
2023-05-25T07:59:37.555Z,35.06
2023-05-25T08:02:42.644Z,34.25
2023-05-25T08:05:46.386Z,34.48
2023-05-25T08:08:51.343Z,34.42
2023-05-25T08:12:18.604Z,34.31
2023-05-25T08:15:23.502Z,34.87
2023-05-25T08:18:27.699Z,34.91
2023-05-25T08:21:35.544Z,35.36
2023-05-25T08:24:39.544Z,35.63
2023-05-25T08:27:43.818Z,35.77
2023-05-25T08:30:48.256Z,36.16
2023-05-25T08:33:57.919Z,36.23
2023-05-25T08:37:02.286Z,36.48
2023-05-25T08:40:08.874Z,36.79
2023-05-25T08:43:13.019Z,36.82
2023-05-25T08:46:34.133Z,37.12
2023-05-25T08:49:42.499Z,37.33
2023-05-25T08:52:47.903Z,37.12
2023-05-25T08:55:55.317Z,37.50
2023-05-25T08:59:04.183Z,37.94
2023-05-25T09:02:40.314Z,38.36
2023-05-25T09:05:45.012Z,38.08
2023-05-25T09:08:49.263Z,37.74
2023-05-25T09:12:40.440Z,38.57
2023-05-25T09:15:45.777Z,38.39
2023-05-25T09:18:57.881Z,38.93
2023-05-25T09:22:14.776Z,39.12
2023-05-25T09:25:24.021Z,39.79
2023-05-25T09:28:33.148Z,40.21
2023-05-25T09:32:09.104Z,40.58
2023-05-25T09:35:11.005Z,41.35
2023-05-25T09:38:17.644Z,41.25
2023-05-25T09:41:31.129Z,42.04
2023-05-25T09:44:35.131Z,43.03
2023-05-25T09:47:46.483Z,43.24
2023-05-25T09:50:50.639Z,43.74
2023-05-25T09:53:57.982Z,44.53
2023-05-25T09:57:06.183Z,44.74
2023-05-25T10:00:24.777Z,47.76
2023-05-25T10:03:29.364Z,46.33
2023-05-25T10:06:36.399Z,45.94
2023-05-25T10:09:49.143Z,46.85
2023-05-25T10:12:54.605Z,47.23
2023-05-25T10:16:03.755Z,46.95
2023-05-25T10:19:15.678Z,46.21
2023-05-25T10:22:28.093Z,45.79
2023-05-25T10:25:45.257Z,45.60
2023-05-25T10:28:52.710Z,45.37
2023-05-25T10:32:03.579Z,45.14
2023-05-25T10:35:11.174Z,45.36
2023-05-25T10:38:16.042Z,45.45
2023-05-25T10:41:22.396Z,44.78
2023-05-25T10:44:29.211Z,44.77
2023-05-25T10:47:45.220Z,45.91
2023-05-25T10:50:52.733Z,47.36
2023-05-25T10:54:04.749Z,46.62
2023-05-25T10:57:21.099Z,46.48
2023-05-25T11:00:25.680Z,46.26
2023-05-25T11:03:45.712Z,46.04
2023-05-25T11:07:17.506Z,45.79
2023-05-25T11:10:43.156Z,45.46
2023-05-25T11:13:51.723Z,45.21
2023-05-25T11:17:17.455Z,44.78
2023-05-25T11:20:29.213Z,45.17
2023-05-25T11:23:33.401Z,44.60
2023-05-25T11:26:40.369Z,44.32
2023-05-25T11:29:47.545Z,44.17
2023-05-25T11:32:51.834Z,43.94
2023-05-25T11:36:00.163Z,43.61
2023-05-25T11:39:17.184Z,43.63
2023-05-25T11:42:26.039Z,43.71
2023-05-25T11:45:33.243Z,43.94
2023-05-25T11:48:40.251Z,43.00
2023-05-25T11:51:44.779Z,42.88
2023-05-25T11:54:56.905Z,41.58
2023-05-25T11:58:03.375Z,39.47
2023-05-25T12:01:28.404Z,38.84
2023-05-25T12:04:35.731Z,39.08
2023-05-25T12:07:50.553Z,37.31
2023-05-25T12:10:54.643Z,38.35
2023-05-25T12:14:02.103Z,38.12
2023-05-25T12:17:07.406Z,37.49
2023-05-25T12:20:16.275Z,37.25
2023-05-25T12:23:20.628Z,37.03
2023-05-25T12:26:27.411Z,37.19
2023-05-25T12:29:39.223Z,36.72
2023-05-25T12:33:03.776Z,35.45
2023-05-25T12:36:15.571Z,35.18
2023-05-25T12:39:35.472Z,35.81
2023-05-25T12:42:58.204Z,35.33
2023-05-25T12:46:07.593Z,35.76
2023-05-25T12:49:39.520Z,36.04
2023-05-25T12:52:49.353Z,36.34
2023-05-25T12:56:04.347Z,36.14
2023-05-25T12:59:19.393Z,35.94
2023-05-25T13:02:24.796Z,35.81
2023-05-25T13:05:37.953Z,36.18
2023-05-25T13:08:54.086Z,34.39
2023-05-25T13:12:15.421Z,33.85
2023-05-25T13:15:30.390Z,33.38
2023-05-25T13:18:36.575Z,32.90
2023-05-25T13:21:46.899Z,32.78
2023-05-25T13:24:56.219Z,33.29
2023-05-25T13:28:07.192Z,33.45
2023-05-25T13:31:19.224Z,33.63
2023-05-25T13:34:24.777Z,33.79
2023-05-25T13:37:31.173Z,33.59
2023-05-25T13:40:35.378Z,33.86
2023-05-25T13:43:39.518Z,32.99
2023-05-25T13:46:43.742Z,33.63
2023-05-25T13:49:48.578Z,33.49
2023-05-25T13:52:52.638Z,32.88
2023-05-25T13:55:56.683Z,32.71
2023-05-25T13:59:00.597Z,32.63
2023-05-25T14:02:04.673Z,32.67
2023-05-25T14:05:08.961Z,32.52
2023-05-25T14:08:13.618Z,32.79
2023-05-25T14:11:21.862Z,33.05
2023-05-25T14:14:32.676Z,33.02
2023-05-25T14:17:37.393Z,32.94
2023-05-25T14:20:43.512Z,33.16
2023-05-25T14:23:47.683Z,33.03
2023-05-25T14:26:51.662Z,33.40
2023-05-25T14:29:55.713Z,33.18
2023-05-25T14:38:13.662Z,33.02
2023-05-25T14:46:40.048Z,36.08
2023-05-25T14:49:44.605Z,35.63
2023-05-25T14:52:48.613Z,34.32
2023-05-25T14:55:52.854Z,34.70
2023-05-25T14:58:56.811Z,34.93
2023-05-25T15:02:00.895Z,35.20
2023-05-25T15:05:05.177Z,36.04
2023-05-25T15:08:11.352Z,35.71
2023-05-25T15:11:19.773Z,34.46
2023-05-25T15:14:23.471Z,33.78
2023-05-25T15:17:29.952Z,33.65
2023-05-25T15:20:34.182Z,33.45
2023-05-25T15:23:38.290Z,34.40
2023-05-25T15:26:42.071Z,34.38
2023-05-25T15:29:49.369Z,34.86
2023-05-25T15:32:53.971Z,33.86
2023-05-25T15:35:58.195Z,33.01
2023-05-25T15:39:02.341Z,33.74
2023-05-25T15:42:06.515Z,34.17
2023-05-25T15:45:11.242Z,34.73
2023-05-25T15:48:16.435Z,35.20
2023-05-25T15:51:20.573Z,35.21
2023-05-25T15:54:24.602Z,35.00
2023-05-25T15:57:34.470Z,34.89
2023-05-25T16:00:38.753Z,34.62
2023-05-25T16:03:43.991Z,34.25
2023-05-25T16:06:49.252Z,34.22
2023-05-25T16:09:52.830Z,35.02
2023-05-25T16:12:56.824Z,35.06
2023-05-25T16:16:01.458Z,35.09
2023-05-25T16:19:05.797Z,35.26
2023-05-25T16:22:09.892Z,34.50
2023-05-25T16:25:13.897Z,34.95
2023-05-25T16:28:18.642Z,35.62
2023-05-25T16:31:22.754Z,36.53
2023-05-25T16:34:26.781Z,36.31
2023-05-25T16:37:30.560Z,36.90
2023-05-25T16:40:36.421Z,36.62
2023-05-25T16:43:40.453Z,35.95
2023-05-25T16:46:44.542Z,35.87
2023-05-25T16:49:48.666Z,36.45
2023-05-25T16:52:52.668Z,36.63
2023-05-25T16:56:00.422Z,37.77
2023-05-25T16:59:04.539Z,37.94
2023-05-25T17:02:08.359Z,38.15
2023-05-25T17:05:12.433Z,38.37
2023-05-25T17:08:16.257Z,39.00
2023-05-25T17:11:27.105Z,39.71
2023-05-25T17:14:31.185Z,39.36
2023-05-25T17:17:35.285Z,39.45
2023-05-25T17:20:39.365Z,40.16
2023-05-25T17:23:43.450Z,39.93
2023-05-25T17:26:50.211Z,39.46
2023-05-25T17:29:54.623Z,38.57
2023-05-25T17:33:02.286Z,38.31
2023-05-25T17:36:06.847Z,38.28
2023-05-25T17:39:11.015Z,38.23
2023-05-25T17:42:15.452Z,38.11
2023-05-25T17:45:19.637Z,37.71
2023-05-25T17:48:23.616Z,37.20
2023-05-25T17:51:27.528Z,37.44
2023-05-25T17:54:31.650Z,38.01
2023-05-25T17:57:35.683Z,37.95
2023-05-25T18:00:39.512Z,38.59
2023-05-25T18:03:44.640Z,38.69
2023-05-25T18:06:53.221Z,38.51
2023-05-25T18:09:57.227Z,38.98
2023-05-25T18:13:06.847Z,39.74
2023-05-25T18:16:11.123Z,39.38
2023-05-25T18:19:17.400Z,39.43
2023-05-25T18:22:21.406Z,39.71
2023-05-25T18:25:25.523Z,39.51
2023-05-25T18:28:31.282Z,39.65
2023-05-25T18:31:35.495Z,40.02
2023-05-25T18:34:39.554Z,40.42
2023-05-25T18:37:43.533Z,40.57
2023-05-25T18:40:47.653Z,40.76
2023-05-25T18:43:52.363Z,41.27
2023-05-25T18:46:57.715Z,42.26
2023-05-25T18:50:01.889Z,44.49
2023-05-25T18:53:10.969Z,43.44
2023-05-25T18:56:15.291Z,43.18
2023-05-25T18:59:22.281Z,42.66
2023-05-25T19:02:27.337Z,42.85
2023-05-25T19:05:31.465Z,43.30
2023-05-25T19:08:35.327Z,44.06
2023-05-25T19:11:39.601Z,43.69
2023-05-25T19:14:43.749Z,43.57
2023-05-25T19:17:47.950Z,43.53
2023-05-25T19:20:52.301Z,43.22
2023-05-25T19:23:58.285Z,43.52
2023-05-25T19:27:02.648Z,43.69
2023-05-25T19:30:07.260Z,43.70
2023-05-25T19:33:11.700Z,43.80
2023-05-25T19:36:15.950Z,44.40
2023-05-25T19:39:20.113Z,45.86
2023-05-25T19:42:24.322Z,45.62
2023-05-25T19:45:28.114Z,47.08
2023-05-25T19:48:32.612Z,47.60
2023-05-25T19:51:37.925Z,46.58
2023-05-25T19:54:41.973Z,46.04
2023-05-25T19:57:45.934Z,46.19
2023-05-25T20:00:51.663Z,45.58
2023-05-25T20:03:55.817Z,46.07
2023-05-25T20:06:59.794Z,46.05
2023-05-25T20:10:07.197Z,46.92
2023-05-25T20:13:10.931Z,46.27
2023-05-25T20:16:15.301Z,45.68
2023-05-25T20:19:25.792Z,45.45
2023-05-25T20:22:29.874Z,45.55
2023-05-25T20:25:33.888Z,45.74
2023-05-25T20:28:37.895Z,45.69
2023-05-25T20:31:41.914Z,45.20
2023-05-25T20:34:45.871Z,45.32
2023-05-25T20:37:52.285Z,45.26
2023-05-25T20:40:56.116Z,45.66
2023-05-25T20:44:00.441Z,45.45
2023-05-25T20:47:04.566Z,45.22
2023-05-25T20:50:12.609Z,45.09
2023-05-25T20:53:51.248Z,44.86
2023-05-25T20:57:27.329Z,45.01
2023-05-25T21:00:51.126Z,45.27
2023-05-25T21:03:59.106Z,45.39
2023-05-25T21:07:03.440Z,45.20
2023-05-25T21:10:08.053Z,44.99
2023-05-25T21:13:12.938Z,44.64
2023-05-25T21:16:17.262Z,44.73
2023-05-25T21:19:22.746Z,44.63
2023-05-25T21:22:26.898Z,44.47
2023-05-25T21:25:31.457Z,44.53
2023-05-25T21:28:35.774Z,44.21
2023-05-25T21:32:00.862Z,44.31
2023-05-25T21:35:05.788Z,44.20
2023-05-25T21:38:09.791Z,43.98
2023-05-25T21:41:14.493Z,44.33
2023-05-25T21:44:19.145Z,43.83
2023-05-25T21:47:23.294Z,43.22
2023-05-25T21:50:27.307Z,44.00
2023-05-25T21:53:31.865Z,43.98
2023-05-25T21:57:08.525Z,43.99
2023-05-25T22:00:13.869Z,44.29
2023-05-25T22:03:20.278Z,44.64
2023-05-25T22:06:26.420Z,44.95
2023-05-25T22:09:32.771Z,45.15
2023-05-25T22:12:37.129Z,45.66
2023-05-25T22:15:40.938Z,45.28
2023-05-25T22:18:45.029Z,46.09
2023-05-25T22:21:48.984Z,46.09
2023-05-25T22:24:54.592Z,46.00
2023-05-25T22:28:01.637Z,45.92
2023-05-25T22:31:08.106Z,46.07
2023-05-25T22:34:12.476Z,46.90
2023-05-25T22:37:18.368Z,47.03
2023-05-25T22:40:22.893Z,46.90
2023-05-25T22:43:27.890Z,46.25
2023-05-25T22:46:32.100Z,47.02
2023-05-25T22:49:41.874Z,46.93
2023-05-25T22:52:48.932Z,46.58
2023-05-25T22:55:52.754Z,46.26
2023-05-25T22:58:56.804Z,45.70
2023-05-25T23:02:01.950Z,45.71
2023-05-25T23:05:06.454Z,46.54
2023-05-25T23:08:10.372Z,45.95
2023-05-25T23:11:14.402Z,45.52
2023-05-25T23:14:18.213Z,45.79
2023-05-25T23:17:23.167Z,45.75
2023-05-25T23:20:27.044Z,45.85
2023-05-25T23:23:31.009Z,45.53
2023-05-25T23:26:35.007Z,44.66
2023-05-25T23:29:39.033Z,44.20
2023-05-25T23:32:43.128Z,44.66
2023-05-25T23:35:48.830Z,45.28
2023-05-25T23:38:53.799Z,45.36
2023-05-25T23:41:58.070Z,45.75
2023-05-25T23:45:02.112Z,45.58
2023-05-25T23:48:08.953Z,45.45
2023-05-25T23:51:13.300Z,45.79
2023-05-25T23:54:17.077Z,45.41
2023-05-25T23:57:21.216Z,44.65
